Time;durP1;ratioP1;P1;durP2;ratioP2;P2;SDS_P1;SDS_P2;PMS_P1;PMS_P2;Temp;Humidity;BMP_temperature;BMP_pressure;BME280_temperature;BME280_humidity;BME280_pressure;Samples;Min_cycle;Max_cycle;Signal;HPM_P1;HPM_P2
2021/05/23 06:52:26;;;;;;;9.43;8.23;;;19.60;99.90;;;;;;5032569;28;20482;-68
2021/05/23 06:54:52;;;;;;;9.80;8.57;;;20.00;99.90;;;;;;5032125;28;20838;-68
2021/05/23 06:57:17;;;;;;;9.23;8.23;;;19.90;99.90;;;;;;5034552;28;20685;-71
2021/05/23 06:59:43;;;;;;;8.63;7.60;;;20.00;99.90;;;;;;5036422;28;20198;-69
2021/05/23 07:02:08;;;;;;;8.60;7.37;;;20.00;99.90;;;;;;5035275;28;20626;-69
2021/05/23 07:04:34;;;;;;;8.80;7.90;;;20.20;99.90;;;;;;5034632;28;20219;-69
2021/05/23 07:07:00;;;;;;;8.30;7.50;;;20.40;99.90;;;;;;5034459;28;20227;-69
2021/05/23 07:09:25;;;;;;;11.73;7.97;;;20.30;99.90;;;;;;5035703;28;20264;-70
2021/05/23 07:11:51;;;;;;;9.47;7.13;;;20.40;99.90;;;;;;5035590;28;20254;-69
2021/05/23 07:14:16;;;;;;;7.93;7.20;;;20.50;99.90;;;;;;5035965;28;20501;-70
2021/05/23 07:16:42;;;;;;;7.60;6.90;;;20.70;99.90;;;;;;5034307;28;20202;-70
2021/05/23 07:19:07;;;;;;;7.60;6.77;;;20.70;99.90;;;;;;5035935;28;20186;-69
2021/05/23 07:21:33;;;;;;;7.47;6.77;;;21.00;99.90;;;;;;5035430;28;20279;-68
2021/05/23 07:23:59;;;;;;;7.10;6.50;;;21.10;99.90;;;;;;5035680;28;20225;-70
2021/05/23 07:26:24;;;;;;;6.83;6.13;;;21.20;99.90;;;;;;5035247;28;20228;-68
2021/05/23 07:28:51;;;;;;;11.60;7.57;;;21.30;99.90;;;;;;5035575;28;20257;-69
2021/05/23 07:31:16;;;;;;;7.37;5.90;;;21.40;99.90;;;;;;5035279;28;20690;-70
2021/05/23 07:33:42;;;;;;;5.57;5.07;;;21.40;99.90;;;;;;5035518;28;20415;-69
2021/05/23 07:36:10;;;;;;;7.83;5.83;;;21.30;99.90;;;;;;5033790;28;20268;-69
2021/05/23 07:38:36;;;;;;;4.90;4.50;;;21.10;99.90;;;;;;5035383;28;20311;-68
2021/05/23 07:41:02;;;;;;;7.00;6.40;;;21.20;99.90;;;;;;5035021;28;20404;-69
2021/05/23 07:43:28;;;;;;;6.80;6.20;;;21.20;99.90;;;;;;5035063;28;20487;-70
2021/05/23 07:45:53;;;;;;;7.07;5.90;;;21.70;99.90;;;;;;5034964;28;20746;-71
2021/05/23 07:48:19;;;;;;;6.43;5.63;;;21.90;99.90;;;;;;5035031;28;20203;-69
2021/05/23 07:50:47;;;;;;;8.90;6.00;;;22.30;99.90;;;;;;5034969;28;20515;-70
2021/05/23 07:53:12;;;;;;;5.20;4.47;;;22.40;99.90;;;;;;5033332;28;20203;-69
2021/05/23 07:55:46;;;;;;;3.43;3.13;;;22.50;99.90;;;;;;5034391;28;20817;-69
2021/05/23 07:58:11;;;;;;;6.80;3.97;;;22.40;99.90;;;;;;5034651;28;20201;-69
2021/05/23 08:00:37;;;;;;;2.40;2.20;;;22.20;99.90;;;;;;5034579;28;20454;-70
2021/05/23 08:03:03;;;;;;;3.87;2.13;;;22.40;99.90;;;;;;5034623;28;20475;-69
2021/05/23 08:05:29;;;;;;;4.60;2.83;;;22.70;99.90;;;;;;5016871;28;20178;-70
2021/05/23 08:07:55;;;;;;;2.90;2.53;;;22.50;99.90;;;;;;5034715;28;20205;-68
2021/05/23 08:10:21;;;;;;;2.97;2.63;;;22.80;99.90;;;;;;5034581;28;20525;-69
2021/05/23 08:12:47;;;;;;;3.40;2.50;;;23.20;99.90;;;;;;5016733;28;20497;-69
2021/05/23 08:15:13;;;;;;;3.30;2.90;;;23.30;99.90;;;;;;5016564;28;20419;-70
2021/05/23 08:17:41;;;;;;;3.20;2.70;;;23.20;99.90;;;;;;5016624;28;20828;-70
2021/05/23 08:20:07;;;;;;;3.30;2.60;;;23.30;99.90;;;;;;5016490;28;20411;-69
2021/05/23 08:22:33;;;;;;;5.13;3.17;;;23.20;99.90;;;;;;5034210;28;20435;-69
2021/05/23 08:25:01;;;;;;;6.23;4.20;;;23.40;99.90;;;;;;5034250;28;20822;-70
2021/05/23 08:27:27;;;;;;;3.27;2.97;;;23.10;99.90;;;;;;5034012;28;20517;-71
2021/05/23 08:29:52;;;;;;;2.97;2.70;;;22.60;99.90;;;;;;5034240;28;20446;-69
2021/05/23 08:32:19;;;;;;;9.80;7.10;;;23.00;99.90;;;;;;5034197;28;20467;-69
2021/05/23 08:34:45;;;;;;;3.10;2.50;;;23.00;99.90;;;;;;5034633;28;20178;-69
2021/05/23 08:37:10;;;;;;;4.50;1.97;;;23.30;99.90;;;;;;5034004;28;20431;-68
2021/05/23 08:39:36;;;;;;;3.67;3.37;;;23.60;99.90;;;;;;5033986;28;20190;-69
2021/05/23 08:42:02;;;;;;;3.43;3.00;;;23.20;99.90;;;;;;5033924;28;20194;-69
2021/05/23 08:44:28;;;;;;;4.17;2.97;;;22.80;99.90;;;;;;5034355;28;20221;-71
2021/05/23 08:46:54;;;;;;;2.97;2.67;;;22.90;99.90;;;;;;5033920;28;20432;-69
2021/05/23 08:49:22;;;;;;;2.73;2.53;;;23.10;99.90;;;;;;5034267;28;20178;-69
2021/05/23 08:51:50;;;;;;;4.20;2.40;;;23.20;99.90;;;;;;5033831;28;20424;-70
2021/05/23 08:54:16;;;;;;;4.23;2.53;;;23.60;99.90;;;;;;5034114;28;20437;-69
2021/05/23 08:56:43;;;;;;;5.40;2.83;;;23.60;99.90;;;;;;5033270;28;20449;-71
2021/05/23 08:59:09;;;;;;;4.00;3.00;;;23.20;99.90;;;;;;5033356;28;20797;-68
2021/05/23 09:01:37;;;;;;;3.80;2.73;;;22.90;99.90;;;;;;5033298;28;20558;-70
2021/05/23 09:04:09;;;;;;;2.43;2.27;;;22.80;99.90;;;;;;5033279;28;20893;-69
2021/05/23 09:06:36;;;;;;;7.23;2.37;;;23.00;99.90;;;;;;5033620;28;20938;-71
2021/05/23 09:09:10;;;;;;;5.50;3.40;;;23.20;99.90;;;;;;5016074;28;20432;-69
2021/05/23 09:11:37;;;;;;;3.50;3.03;;;23.40;99.90;;;;;;5032687;28;20440;-71
2021/05/23 09:14:06;;;;;;;9.80;8.37;;;23.20;99.90;;;;;;5033910;28;20452;-71
2021/05/23 09:16:40;;;;;;;5.37;4.87;;;23.50;99.90;;;;;;5015826;28;20434;-70
2021/05/23 09:19:06;;;;;;;3.50;2.60;;;23.90;99.90;;;;;;5033828;28;20436;-72
2021/05/23 09:21:37;;;;;;;6.97;5.47;;;24.00;99.90;;;;;;5033463;28;20965;-70
2021/05/23 09:24:11;;;;;;;4.70;2.97;;;24.20;99.90;;;;;;5033342;28;20573;-70
2021/05/23 09:26:46;;;;;;;7.63;6.87;;;24.70;99.90;;;;;;5015753;28;20441;-71
2021/05/23 09:29:15;;;;;;;9.60;7.80;;;24.30;99.90;;;;;;5015947;28;20435;-70
2021/05/23 09:31:41;;;;;;;14.60;12.03;;;24.20;99.90;;;;;;5015736;28;21021;-68
2021/05/23 09:34:08;;;;;;;6.97;4.20;;;24.10;99.90;;;;;;5033758;28;20425;-69
2021/05/23 09:36:47;;;;;;;2.80;2.47;;;24.20;99.90;;;;;;5033305;28;20432;-69
2021/05/23 09:39:13;;;;;;;3.23;2.90;;;24.10;99.90;;;;;;5033741;28;20417;-70
2021/05/23 09:41:38;;;;;;;3.50;3.17;;;24.40;99.90;;;;;;5015630;28;20486;-69
2021/05/23 09:44:17;;;;;;;4.03;2.37;;;24.40;99.90;;;;;;5033576;28;20686;-69
2021/05/23 09:46:53;;;;;;;3.00;2.70;;;24.20;99.90;;;;;;5015611;28;20201;-69
2021/05/23 09:49:20;;;;;;;6.77;5.00;;;24.00;99.90;;;;;;5033851;28;20929;-69
2021/05/23 09:52:02;;;;;;;3.93;3.63;;;24.20;99.90;;;;;;5033317;28;20424;-70
2021/05/23 09:54:30;;;;;;;7.70;6.50;;;24.60;99.90;;;;;;5033691;28;20516;-71
2021/05/23 09:56:57;;;;;;;8.53;6.97;;;24.70;99.90;;;;;;5033186;28;20426;-70
2021/05/23 09:59:23;;;;;;;2.47;2.27;;;24.80;99.90;;;;;;5033100;28;20418;-69
2021/05/23 10:01:50;;;;;;;13.17;11.60;;;24.20;99.90;;;;;;5033167;28;20433;-70
2021/05/23 10:04:30;;;;;;;4.83;3.00;;;24.40;99.90;;;;;;5032900;28;20495;-70
2021/05/23 10:07:10;;;;;;;12.73;11.30;;;24.50;99.90;;;;;;5032611;28;20500;-69
2021/05/23 10:09:37;;;;;;;16.90;13.47;;;24.80;99.90;;;;;;5033780;28;20962;-70
2021/05/23 10:12:06;;;;;;;19.27;15.60;;;24.90;99.90;;;;;;5033079;28;20429;-69
2021/05/23 10:14:33;;;;;;;8.30;7.23;;;24.60;99.90;;;;;;5015644;28;20422;-69
2021/05/23 10:17:00;;;;;;;7.03;6.33;;;24.70;99.90;;;;;;5033094;28;20553;-70
2021/05/23 10:19:30;;;;;;;12.87;9.40;;;24.70;99.90;;;;;;5033362;28;20428;-70
2021/05/23 10:21:58;;;;;;;4.20;2.53;;;25.00;99.90;;;;;;5016102;28;20442;-69
2021/05/23 10:24:41;;;;;;;2.67;2.43;;;25.00;99.90;;;;;;5036842;28;20827;-70
2021/05/23 10:27:13;;;;;;;4.20;3.07;;;24.60;99.90;;;;;;4997644;28;20442;-71
2021/05/23 10:29:44;;;;;;;3.80;3.47;;;24.40;99.90;;;;;;5015758;28;20764;-69
2021/05/23 10:32:22;;;;;;;4.80;3.53;;;24.30;99.90;;;;;;4997405;28;20906;-71
2021/05/23 10:34:49;;;;;;;4.53;3.40;;;24.30;99.90;;;;;;4998561;28;20920;-71
2021/05/23 10:37:25;;;;;;;3.60;3.07;;;24.40;99.90;;;;;;4998127;28;20439;-70
2021/05/23 10:39:52;;;;;;;2.57;2.37;;;24.40;99.90;;;;;;5015832;28;20430;-69
2021/05/23 10:42:19;;;;;;;2.70;2.50;;;24.60;99.90;;;;;;5016486;28;20440;-69
2021/05/23 10:44:48;;;;;;;3.20;3.00;;;24.20;99.90;;;;;;5016843;28;20463;-71
2021/05/23 10:47:28;;;;;;;3.23;2.97;;;24.20;99.90;;;;;;5016285;28;20435;-69
2021/05/23 10:49:56;;;;;;;6.67;2.87;;;23.80;99.90;;;;;;4998706;28;20426;-69
2021/05/23 10:52:23;;;;;;;4.43;3.10;;;24.30;99.90;;;;;;5016121;28;20471;-70
2021/05/23 10:55:02;;;;;;;4.53;3.70;;;24.50;99.90;;;;;;5016203;28;20415;-71
2021/05/23 10:57:46;;;;;;;3.83;3.47;;;24.60;99.90;;;;;;5016103;28;20428;-69
2021/05/23 11:00:35;;;;;;;3.70;2.80;;;24.90;99.90;;;;;;5015987;28;20423;-71
2021/05/23 11:03:15;;;;;;;3.37;3.07;;;25.20;99.90;;;;;;5016033;28;20517;-71
2021/05/23 11:05:41;;;;;;;3.07;2.80;;;25.10;99.90;;;;;;4998184;28;20459;-69
2021/05/23 11:08:16;;;;;;;3.67;3.00;;;25.10;99.90;;;;;;5017380;28;20552;-70
2021/05/23 11:10:52;;;;;;;3.13;2.80;;;25.30;99.90;;;;;;5035315;28;20548;-69
2021/05/23 11:13:30;;;;;;;2.60;2.40;;;24.60;99.90;;;;;;5034158;28;20447;-70
2021/05/23 11:16:07;;;;;;;2.33;2.23;;;24.60;99.90;;;;;;5034183;28;20786;-71
2021/05/23 11:18:33;;;;;;;2.57;2.37;;;24.60;99.90;;;;;;5034404;28;20510;-70
2021/05/23 11:21:00;;;;;;;2.97;2.73;;;24.60;99.90;;;;;;5035586;28;20501;-71
2021/05/23 11:23:27;;;;;;;4.03;2.60;;;24.60;99.90;;;;;;5035511;28;20221;-69
2021/05/23 11:26:11;;;;;;;2.90;2.47;;;25.00;99.90;;;;;;5035423;28;20411;-69
2021/05/23 11:28:38;;;;;;;3.27;2.40;;;25.00;99.90;;;;;;5035583;28;20421;-69
2021/05/23 11:31:04;;;;;;;3.23;2.30;;;25.10;99.90;;;;;;5034026;28;20804;-71
2021/05/23 11:33:30;;;;;;;3.63;2.60;;;25.00;99.90;;;;;;5034573;28;20450;-70
2021/05/23 11:35:55;;;;;;;2.70;2.50;;;25.10;99.90;;;;;;5035267;28;20797;-69
2021/05/23 11:38:32;;;;;;;3.87;2.70;;;24.90;99.90;;;;;;5034018;28;20702;-69
2021/05/23 11:40:58;;;;;;;2.40;2.20;;;24.80;99.90;;;;;;5035258;28;20159;-68
2021/05/23 11:43:24;;;;;;;3.13;2.67;;;24.40;99.90;;;;;;5035124;28;20490;-71
2021/05/23 11:45:55;;;;;;;5.50;5.10;;;24.40;99.90;;;;;;5035090;28;20197;-70
2021/05/23 11:48:41;;;;;;;2.77;2.57;;;24.60;99.90;;;;;;5035084;28;20444;-70
2021/05/23 11:51:12;;;;;;;2.80;2.60;;;24.90;99.90;;;;;;5034820;28;20790;-70
2021/05/23 11:53:44;;;;;;;2.43;2.10;;;24.90;99.90;;;;;;5035267;28;20415;-70
2021/05/23 11:56:14;;;;;;;3.63;2.27;;;24.80;99.90;;;;;;5034733;28;20963;-69
2021/05/23 11:58:44;;;;;;;2.73;2.53;;;25.00;99.90;;;;;;5035149;28;20423;-68
2021/05/23 12:01:32;;;;;;;6.10;5.60;;;24.80;99.90;;;;;;5035224;28;20897;-70
2021/05/23 12:04:10;;;;;;;2.50;2.30;;;24.70;99.90;;;;;;5034806;28;20470;-69
2021/05/23 12:06:37;;;;;;;2.67;2.10;;;25.00;99.90;;;;;;5034810;28;20464;-69
2021/05/23 12:56:49;;;;;;;2.20;1.87;;;26.40;98.60;;;;;;5021460;28;21460;-69
2021/05/23 12:59:20;;;;;;;3.10;2.27;;;26.00;97.80;;;;;;5029512;28;20486;-71
2021/05/23 13:01:47;;;;;;;2.50;2.30;;;26.20;97.50;;;;;;5033693;28;20948;-70
2021/05/23 13:04:21;;;;;;;3.97;2.50;;;26.20;96.50;;;;;;5032375;28;20968;-70
2021/05/23 13:06:57;;;;;;;2.93;1.77;;;26.00;96.60;;;;;;5033650;28;20427;-69
2021/05/23 13:09:36;;;;;;;2.00;1.80;;;26.00;95.90;;;;;;5034092;28;20447;-69
2021/05/23 13:12:05;;;;;;;4.10;2.70;;;26.00;95.90;;;;;;5033531;28;20434;-69
2021/05/23 13:14:33;;;;;;;3.70;2.20;;;25.80;95.20;;;;;;5034174;28;20419;-69
2021/05/23 13:17:01;;;;;;;3.90;2.23;;;25.60;95.00;;;;;;5033552;28;20541;-69
2021/05/23 13:19:29;;;;;;;2.80;2.60;;;25.70;95.70;;;;;;5033992;28;20414;-69
2021/05/23 13:21:57;;;;;;;5.77;2.60;;;26.00;95.50;;;;;;5033462;28;20431;-69
2021/05/23 13:24:26;;;;;;;4.87;2.10;;;26.00;96.30;;;;;;5033718;28;21063;-68
2021/05/23 13:27:01;;;;;;;2.70;1.93;;;25.90;96.10;;;;;;5033365;28;20435;-69
2021/05/23 13:29:27;;;;;;;2.30;2.10;;;26.50;95.70;;;;;;5033958;28;20417;-69
2021/05/23 13:31:54;;;;;;;2.63;2.37;;;27.00;95.60;;;;;;5033363;28;20987;-69
2021/05/23 13:34:19;;;;;;;3.53;2.50;;;27.10;94.30;;;;;;5033888;28;20859;-69
2021/05/23 13:36:45;;;;;;;2.90;2.70;;;26.90;94.40;;;;;;5033363;28;20432;-70
2021/05/23 13:39:12;;;;;;;2.50;2.30;;;26.50;95.40;;;;;;5032255;28;20188;-69
2021/05/23 13:41:38;;;;;;;2.40;2.20;;;26.00;95.10;;;;;;5033325;28;20255;-68
2021/05/23 13:44:06;;;;;;;2.57;2.37;;;25.90;95.00;;;;;;5033570;28;20471;-70
2021/05/23 13:46:33;;;;;;;5.37;3.03;;;26.00;95.50;;;;;;5031962;28;20451;-70
2021/05/23 13:48:58;;;;;;;3.80;2.23;;;26.10;95.20;;;;;;5033780;28;20939;-69
2021/05/23 13:51:24;;;;;;;3.93;1.93;;;26.30;96.10;;;;;;5033193;28;20399;-68
2021/05/23 13:53:50;;;;;;;3.00;2.80;;;26.10;95.10;;;;;;5032089;28;20183;-69
2021/05/23 13:56:16;;;;;;;3.60;2.37;;;26.20;94.50;;;;;;5033251;28;20412;-70
2021/05/23 14:38:08;;;;;;;6.60;2.60;;;25.10;93.80;;;;;;5156343;27;20562;-69
2021/05/23 14:40:34;;;;;;;18.97;4.10;;;25.10;95.00;;;;;;5152768;27;20438;-69
2021/05/23 14:43:00;;;;;;;28.37;5.03;;;23.90;99.10;;;;;;5152962;27;20210;-69
2021/05/23 14:45:26;;;;;;;21.83;4.07;;;21.70;99.90;;;;;;5152634;27;20390;-70
2021/05/23 14:47:51;;;;;;;2.80;2.20;;;21.40;99.90;;;;;;5134346;27;20853;-70
2021/05/23 14:50:19;;;;;;;2.70;1.77;;;19.80;99.90;;;;;;5152567;27;20182;-71
2021/05/23 14:52:45;;;;;;;4.63;1.30;;;19.00;99.90;;;;;;5134410;27;20205;-68
2021/05/23 14:55:11;;;;;;;4.83;1.00;;;18.80;99.90;;;;;;5152457;27;20396;-70
2021/05/23 14:57:40;;;;;;;1.50;1.30;;;18.40;99.90;;;;;;5152644;27;20485;-70
2021/05/23 15:00:08;;;;;;;2.40;1.60;;;18.10;99.90;;;;;;5133813;27;20406;-69
2021/05/23 15:02:35;;;;;;;1.77;1.20;;;17.80;99.90;;;;;;5152825;27;20939;-69
2021/05/23 15:05:02;;;;;;;2.10;1.00;;;17.50;99.90;;;;;;5152281;27;20414;-68
2021/05/23 15:07:28;;;;;;;2.33;1.00;;;17.20;99.90;;;;;;5152723;27;20801;-69
2021/05/23 15:09:53;;;;;;;1.73;1.10;;;17.30;99.90;;;;;;5152197;27;20401;-69
2021/05/23 15:12:19;;;;;;;1.03;0.93;;;17.10;99.90;;;;;;5152039;27;20202;-70
2021/05/23 15:14:45;;;;;;;1.57;0.90;;;17.00;99.90;;;;;;5152134;27;20177;-69
2021/05/23 15:17:11;;;;;;;2.70;1.00;;;17.10;99.90;;;;;;5152145;27;20560;-69
2021/05/23 15:19:36;;;;;;;1.60;0.90;;;17.20;99.90;;;;;;5152082;27;20177;-69
2021/05/23 15:22:02;;;;;;;0.70;0.70;;;17.20;99.90;;;;;;5152334;27;20281;-67
2021/05/23 15:24:29;;;;;;;0.90;0.80;;;17.10;99.90;;;;;;5133963;27;20183;-71
2021/05/23 15:27:03;;;;;;;1.37;0.70;;;17.00;99.90;;;;;;5152118;27;20188;-70
2021/05/23 15:32:13;;;;;;;0.60;0.50;;;17.20;99.90;;;;;;5152032;27;20479;-69
2021/05/23 15:34:39;;;;;;;1.07;0.60;;;17.30;99.90;;;;;;5151800;27;20402;-70
